Monatstabelle

Bitte in den Auwahlmenüs den gewünschte Zeiraum wählen und die Schaltfläche "Anfrage absenden" betätigen. Beginn der Aufzeichnung ist 2007 - Dezember. Vor diesem Zeitraum sind keine Daten verfügbar.

2020 - August

 

Datum Temperatur (°C) Luftdruck (hPa) Luftfeuchte (%) Regen
(l/m²)
Wind (km/h)
avg: min: max: avg: min: max: avg: min: max: avg: max:
01.08.2020 22,1 14,8 29,5 1014,6 1013,6 1016,6 60 38 86 0,0 3,9 10,9
02.08.2020 22,4 13,3 29,9 1012,8 1011,2 1014,8 69 43 85 0,1 3,0 10,5
03.08.2020 19,2 17,6 22,3 1007,2 1005,5 1011,5 86 76 90 16,5 1,3 8,7
04.08.2020 16,9 14,4 21,3 1009,9 1003,2 1014,6 81 71 92 4,8 9,5 18,2
05.08.2020 14,7 13,7 15,5 1016,8 1014,5 1017,6 88 77 92 11,5 5,4 15,4
06.08.2020 19,2 13,8 24,5 1018,5 1016,7 1020,0 82 64 94 0,0 3,0 13,8
07.08.2020 21,5 15,0 29,5 1019,5 1018,8 1020,5 74 45 95 0,0 2,8 11,4
08.08.2020 22,5 15,1 31,3 1018,8 1017,9 1020,4 68 38 92 0,0 1,6 9,0
09.08.2020 22,8 16,4 30,5 1016,7 1015,2 1018,0 68 43 88 0,0 2,3 13,4
10.08.2020 24,2 16,3 32,3 1015,5 1014,2 1016,4 63 34 88 0,0 1,9 8,2
11.08.2020 21,0 15,5 27,2 1017,6 1016,2 1018,4 80 61 92 0,0 2,3 13,5
12.08.2020 21,9 15,2 29,9 1017,4 1016,8 1018,8 69 44 95 0,0 3,3 7,9
13.08.2020 22,6 16,3 31,1 1014,5 1013,0 1017,1 75 50 92 1,4 6,5 15,8
14.08.2020 20,7 17,1 27,4 1013,7 1012,1 1014,8 78 57 89 1,8 0,7 7,9
15.08.2020 20,9 16,3 27,5 1013,8 1012,2 1014,1 83 56 94 5,5 2,4 11,6
16.08.2020 19,8 17,9 25,1 1012,6 1011,8 1014,0 86 70 94 36,0 3,1 9,8
17.08.2020 18,8 16,4 24,0 1010,3 1009,7 1012,2 91 78 94 4,0 1,3 13,0
18.08.2020 18,6 15,9 23,5 1009,5 1008,2 1010,4 83 66 94 0,4 2,6 9,8
19.08.2020 18,8 14,3 25,1 1010,2 1008,6 1011,0 73 49 91 0,0 3,8 16,4
20.08.2020 20,8 12,3 28,3 1013,1 1010,6 1014,2 67 40 93 0,0 4,5 8,7
21.08.2020 23,9 15,5 31,0 1014,8 1013,7 1015,3 71 52 92 0,0 7,2 12,7
22.08.2020 22,9 17,5 32,3 1015,3 1013,1 1017,7 78 50 93 2,1 3,3 10,9
23.08.2020 20,3 17,5 26,1 1016,2 1014,3 1017,0 69 45 84 0,1 2,5 15,0
24.08.2020 18,6 14,4 23,9 1015,4 1014,1 1016,9 70 49 82 0,0 1,3 7,2
25.08.2020 18,8 11,2 25,7 1013,7 1012,5 1015,6 64 41 91 0,0 5,8 12,1
26.08.2020 21,4 14,4 31,5 1011,1 1008,8 1013,2 59 31 83 0,0 4,4 12,2
27.08.2020 20,3 16,5 27,3 1013,9 1012,8 1015,8 57 36 73 0,0 3,0 16,1
28.08.2020 21,4 11,2 28,1 1007,2 1004,0 1013,5 66 47 87 0,0 11,3 18,8
29.08.2020 19,6 16,9 24,8 1006,8 1004,6 1008,0 80 59 92 30,1 5,2 13,7
30.08.2020 19,9 16,1 27,5 1005,7 1003,8 1008,8 82 60 95 3,7 5,7 19,3
31.08.2020 15,2 11,5 20,4 1012,8 1009,1 1015,7 81 54 92 6,7 2,5 13,0
avg. 20,4 1013,4 74   ---
  Summe Regen: 124,6  
 
Min-Datum 25.08.2020 04.08.2020 26.08.2020 --- ---
Min-Zeit 06:34 04:00 14:18 --- ---
Minimum 11,2 1003,2 31 --- ---
 

Max-Datum

10.08.2020 07.08.2020 07.08.2020 16.08.2020 30.08.2020
Max-Zeit 16:04 11:40 07:32 06:48 12:40
Maximum 32,3 1020,5 95 36,0 19,3
 

 

  Letztes Jahr
gleiches Monat
Eistage max < 0°C 0 0
Frosttage min < 0°C 0 0
Sommertage max >=25°C 22 26
Heiße Tage max >=30°C 7 14

 

<<< nach oben >>>